Detall de PIREP

Printer-friendly versionPDF version

[2010/07/29 09:45:00]
Flight IATA:CT2105
Pilot Number:042
Company ICAO:CAT
Aircraft Type:B744/E
PAX:350
Departing Airport: LEBB
Destination Airport: LEVC
Alternate Airport:LEPA
Online: VATSIM
Route:PPN UM601 MARIO POSSY UN862 MLA UN860 SAURA
Flight Level:FL250
No Slew and time accel
No pause
Crash detect
Detect pilot in Cockpit between each 30 and 45 minutes
09:45 Zero fuel Weight: 466689 Lbs, Fuel Weight: 173241 Lbs
09:45 VATSIM:LEBB 290930Z 32007KT 290V010 9999 FEW015 SCT022 BKN035 23/17 Q1020 NOSIG
09:45 VATSIM:LEVC 290930Z VRB01KT 9999 FEW040 30/17 Q1014 NOSIG
09:45 VOICE CATALONIAN/ROUTE IATA 2105
09:51 Parking Brakes off
10:00 Take-off
10:00 Take off Weight: 637413 Lbs
10:00 Wind: 330 @ 007 Knots Heading: 298
10:00 POS N43 18 10 W002 54 55
10:00 Gear Up: 195 Knots
10:00 Flaps:2 at 196 Knots
10:01 Flaps:1 at 179 Knots
10:01 Flaps:0 at 219 Knots
10
:10 TOC
10:10 Fuel Weight: 160843 Lb
10:15 Wind:346@046 Knots Heading: 119 Ground Speed: 501 Knots Altitude 25167 ft
10:30 Wind:320@034 Knots Heading: 182 Ground Speed: 494 Knots Altitude 25088 ft
10:37 TOD
10:37 Fuel Weight: 150196 Lb
10:45 Wind:297@023 Knots Heading: 289 Ground Speed: 315 Knots Altitude 11315 ft
10:48 Flaps:1 at 232 Knots
10:48 Flaps:2 at 211 Knots
10:49 Flaps:3 at 185 Knots
10:50 Flaps:4 at 175 Knots
10:50 Flaps:5 at 170 Knots
10:50 Gear Down: 167 Knots
10:50 Flaps:4 at 168 Knots
10:50 Flaps:5 at 163 Knots
10:50 Flaps:6 at 158 Knots
10:54 TouchDown:Rate -293 ft/min Speed: 155 Knots
10:54 VATSIM:LEVC 291030Z VRB03KT 9999 FEW035 31/16 Q1013 NOSIG
10:54 Land
10:54 Wind:003@002 Knots
10:54 Heading: 116
10:54 Flight Duration: 00:54
10:54 Landing Weight: 612694 Lbs
10:54 POS N39 29 16 W000 28 42
10:58 Parking brakes on
1
0:58 Block to Block Duration: 01:07
10:58 Final Fuel: 145198 Lbls
10:58 Spent Fuel: 28042 Lbls
10:58 Flight Length: 365 NM
10:58 TOD Land Length: 83 NM

Exportar CSV

Powered by Drupal - Modified by Danger4k